Terminal Aerodrome Forecast
Issued by NWS

Home | Current Version | Previous Version | Text Only | Print | Product List | Glossary On
Versions: 1 2 3 4 5 6 7 8 9 10 11 12 13 14 15 16 17 18 19 20 21 22 23 24 25 26 27 28
924
FTUS46 KMTR 070848 AAA
TAFSFO
TAF AMD
KSFO 070848Z 0709/0812 29005KT P6SM FEW010 SCT250
     FM071000 09004KT P6SM FEW250
     FM071700 11005KT P6SM BKN150
     FM072200 11010KT P6SM VCSH OVC120
     FM080300 14010KT P6SM -RA OVC050=

USA.gov is the U.S. government's official web portal to all federal, state and local government web resources and services.